createdAt,value
2023-02-01T00:01:09.781Z,-1.79
2023-02-01T00:03:37.409Z,-1.78
2023-02-01T00:06:05.071Z,-1.81
2023-02-01T00:08:32.571Z,-1.94
2023-02-01T00:11:02.193Z,-2.01
2023-02-01T00:13:31.824Z,-1.96
2023-02-01T00:16:08.202Z,-2.19
2023-02-01T00:18:36.472Z,-2.16
2023-02-01T00:21:04.006Z,-2.08
2023-02-01T00:23:35.571Z,-2.30
2023-02-01T00:26:07.606Z,-2.27
2023-02-01T00:28:35.406Z,-2.25
2023-02-01T00:31:05.668Z,-2.19
2023-02-01T00:33:34.836Z,-2.24
2023-02-01T00:36:07.121Z,-2.32
2023-02-01T00:38:37.331Z,-2.48
2023-02-01T00:41:07.613Z,-2.35
2023-02-01T00:43:35.957Z,-2.29
2023-02-01T00:46:03.591Z,-2.21
2023-02-01T00:48:31.270Z,-2.24
2023-02-01T00:51:02.977Z,-2.43
2023-02-01T00:53:31.248Z,-2.79
2023-02-01T00:55:58.690Z,-2.90
2023-02-01T00:58:26.963Z,-3.10
2023-02-01T01:01:08.039Z,-2.89
2023-02-01T01:03:38.807Z,-2.70
2023-02-01T01:06:09.269Z,-2.52
2023-02-01T01:08:37.935Z,-2.58
2023-02-01T01:11:16.773Z,-2.53
2023-02-01T01:13:45.031Z,-2.60
2023-02-01T01:16:12.439Z,-2.32
2023-02-01T01:18:41.030Z,-2.19
2023-02-01T01:21:10.389Z,-2.09
2023-02-01T01:23:38.257Z,-1.93
2023-02-01T01:26:10.710Z,-2.13
2023-02-01T01:28:38.190Z,-2.23
2023-02-01T01:31:08.887Z,-2.18
2023-02-01T01:33:37.041Z,-2.35
2023-02-01T01:36:11.240Z,-2.38
2023-02-01T01:38:40.594Z,-2.41
2023-02-01T01:41:09.095Z,-2.35
2023-02-01T01:43:48.033Z,-2.35
2023-02-01T01:46:26.801Z,-2.30
2023-02-01T01:49:04.324Z,-2.21
2023-02-01T01:51:37.751Z,-2.28
2023-02-01T01:54:27.461Z,-2.45
2023-02-01T01:57:04.875Z,-2.36
2023-02-01T01:59:34.731Z,-2.38
2023-02-01T02:02:02.425Z,-2.40
2023-02-01T02:04:30.201Z,-2.40
2023-02-01T02:07:09.755Z,-2.54
2023-02-01T02:09:38.499Z,-2.64
2023-02-01T02:12:06.047Z,-2.57
2023-02-01T02:14:35.426Z,-2.77
2023-02-01T02:17:30.049Z,-2.94
2023-02-01T02:19:57.387Z,-2.87
2023-02-01T02:22:30.860Z,-2.84
2023-02-01T02:25:04.265Z,-2.74
2023-02-01T02:27:40.176Z,-2.80
2023-02-01T02:30:28.865Z,-2.73
2023-02-01T02:33:07.072Z,-2.75
2023-02-01T02:36:06.319Z,-2.87
2023-02-01T02:39:03.794Z,-3.04
2023-02-01T02:42:14.517Z,-2.99
2023-02-01T02:45:14.417Z,-2.92
2023-02-01T02:48:02.304Z,-3.03
2023-02-01T02:51:08.340Z,-3.09
2023-02-01T02:54:10.593Z,-3.09
2023-02-01T02:56:58.008Z,-3.12
2023-02-01T02:59:46.557Z,-3.06
2023-02-01T03:02:34.619Z,-3.14
2023-02-01T03:05:02.505Z,-3.03
2023-02-01T03:07:55.413Z,-2.89
2023-02-01T03:10:36.153Z,-2.70
2023-02-01T03:13:17.367Z,-2.74
2023-02-01T03:15:59.009Z,-2.83
2023-02-01T03:18:53.630Z,-2.62
2023-02-01T03:21:39.414Z,-2.48
2023-02-01T03:24:15.747Z,-2.50
2023-02-01T03:26:51.604Z,-2.39
2023-02-01T03:29:22.318Z,-2.34
2023-02-01T03:31:50.121Z,-2.42
2023-02-01T03:34:18.206Z,-2.36
2023-02-01T03:36:48.463Z,-2.43
2023-02-01T03:39:34.241Z,-2.42
2023-02-01T03:42:06.280Z,-2.35
2023-02-01T03:44:39.609Z,-2.21
2023-02-01T03:47:15.539Z,-2.09
2023-02-01T03:49:46.956Z,-2.04
2023-02-01T03:52:29.984Z,-1.95
2023-02-01T03:54:58.934Z,-1.82
2023-02-01T03:57:36.101Z,-1.88
2023-02-01T04:00:26.302Z,-1.93
2023-02-01T04:02:56.153Z,-1.94
2023-02-01T04:05:24.740Z,-1.91
2023-02-01T04:08:03.237Z,-1.81
2023-02-01T04:10:30.961Z,-1.88
2023-02-01T04:12:58.591Z,-1.73
2023-02-01T04:15:26.284Z,-1.64
2023-02-01T04:17:53.676Z,-1.60
2023-02-01T04:20:21.403Z,-1.64
2023-02-01T04:22:48.899Z,-1.68
2023-02-01T04:25:18.505Z,-1.56
2023-02-01T04:27:47.813Z,-1.65
2023-02-01T04:30:15.734Z,-1.51
2023-02-01T04:32:43.377Z,-1.43
2023-02-01T04:35:10.881Z,-1.47
2023-02-01T04:37:38.601Z,-1.55
2023-02-01T04:40:06.780Z,-1.50
2023-02-01T04:42:34.370Z,-1.80
2023-02-01T04:45:01.906Z,-1.90
2023-02-01T04:47:29.904Z,-2.00
2023-02-01T04:49:57.392Z,-1.77
2023-02-01T04:52:24.849Z,-1.79
2023-02-01T04:54:52.652Z,-1.76
2023-02-01T04:57:19.940Z,-1.81
2023-02-01T04:59:47.349Z,-1.57
2023-02-01T05:02:14.710Z,-1.43
2023-02-01T05:04:42.353Z,-1.60
2023-02-01T05:07:09.857Z,-1.71
2023-02-01T05:09:37.260Z,-1.85
2023-02-01T05:12:24.153Z,-1.77
2023-02-01T05:14:51.714Z,-1.51
2023-02-01T05:17:19.056Z,-1.73
2023-02-01T05:19:46.496Z,-1.43
2023-02-01T05:22:13.873Z,-1.41
2023-02-01T05:24:41.332Z,-1.47
2023-02-01T05:27:08.791Z,-1.44
2023-02-01T05:29:36.225Z,-1.25
2023-02-01T05:32:20.808Z,-1.32
2023-02-01T05:34:49.837Z,-1.18
2023-02-01T05:37:17.456Z,-1.44
2023-02-01T05:39:44.943Z,-1.28
2023-02-01T05:42:12.323Z,-1.15
2023-02-01T05:44:39.827Z,-1.07
2023-02-01T05:47:07.355Z,-1.11
2023-02-01T05:49:34.851Z,-1.17
2023-02-01T05:52:02.252Z,-1.05
2023-02-01T05:54:29.743Z,-1.20
2023-02-01T05:56:57.092Z,-1.59
2023-02-01T05:59:24.573Z,-1.75
2023-02-01T06:01:51.989Z,-1.86
2023-02-01T06:04:19.576Z,-1.63
2023-02-01T06:06:46.897Z,-1.24
2023-02-01T06:09:14.475Z,-0.80
2023-02-01T06:11:42.713Z,-0.60
2023-02-01T06:14:10.100Z,-0.63
2023-02-01T06:16:37.488Z,-0.43
2023-02-01T06:19:05.058Z,-0.35
2023-02-01T06:21:32.771Z,0.00
2023-02-01T06:24:00.361Z,0.09
2023-02-01T06:26:29.878Z,0.05
2023-02-01T06:28:57.912Z,-0.20
2023-02-01T06:31:26.531Z,0.07
2023-02-01T06:33:54.882Z,0.27
2023-02-01T06:36:22.504Z,0.11
2023-02-01T06:38:50.103Z,0.04
2023-02-01T06:41:17.860Z,0.20
2023-02-01T06:43:46.769Z,0.58
2023-02-01T06:46:14.817Z,0.78
2023-02-01T06:48:42.868Z,0.68
2023-02-01T06:51:25.883Z,0.67
2023-02-01T06:53:53.922Z,0.88
2023-02-01T06:56:21.559Z,0.85
2023-02-01T06:58:49.375Z,0.67
2023-02-01T07:01:17.911Z,0.63
2023-02-01T07:03:48.711Z,0.40
2023-02-01T07:06:16.112Z,0.62
2023-02-01T07:08:43.577Z,0.92
2023-02-01T07:11:15.313Z,1.18
2023-02-01T07:13:43.060Z,1.42
2023-02-01T07:16:13.181Z,1.71
2023-02-01T07:18:40.802Z,1.74
2023-02-01T07:21:08.303Z,1.91
2023-02-01T07:23:36.156Z,1.93
2023-02-01T07:26:06.436Z,1.30
2023-02-01T07:28:36.223Z,0.98
2023-02-01T07:31:10.827Z,1.28
2023-02-01T07:33:38.694Z,1.12
2023-02-01T07:36:08.673Z,1.36
2023-02-01T07:38:36.198Z,1.54
2023-02-01T07:41:06.098Z,1.64
2023-02-01T07:43:36.855Z,1.67
2023-02-01T07:46:06.034Z,2.00
2023-02-01T07:48:35.292Z,2.18
2023-02-01T07:51:06.021Z,2.15
2023-02-01T07:53:35.305Z,2.31
2023-02-01T07:56:03.983Z,2.42
2023-02-01T07:58:31.462Z,2.53
2023-02-01T08:01:17.240Z,2.31
2023-02-01T08:03:44.696Z,2.48
2023-02-01T08:06:12.318Z,1.85
2023-02-01T08:08:39.832Z,2.13
2023-02-01T08:11:08.303Z,1.75
2023-02-01T08:13:54.659Z,1.52
2023-02-01T08:16:24.542Z,1.33
2023-02-01T08:18:52.702Z,1.80
2023-02-01T08:21:26.966Z,1.70
2023-02-01T08:23:54.417Z,1.40
2023-02-01T08:26:24.643Z,1.55
2023-02-01T08:28:58.243Z,1.60
2023-02-01T08:31:27.946Z,1.92
2023-02-01T08:33:57.438Z,2.04
2023-02-01T08:36:26.622Z,1.71
2023-02-01T08:38:54.101Z,2.11
2023-02-01T08:46:13.059Z,2.24
2023-02-01T08:48:40.759Z,2.54
2023-02-01T08:51:13.300Z,2.22
2023-02-01T08:59:50.654Z,2.39
2023-02-01T09:02:20.332Z,1.93
2023-02-01T09:04:47.685Z,1.86
2023-02-01T09:07:15.220Z,1.81
2023-02-01T09:09:42.551Z,1.90
2023-02-01T09:12:10.081Z,2.05
2023-02-01T09:14:37.573Z,2.22
2023-02-01T09:17:06.595Z,2.12
2023-02-01T09:19:33.999Z,2.06
2023-02-01T09:22:01.593Z,2.20
2023-02-01T09:24:29.021Z,2.26
2023-02-01T09:26:56.706Z,1.86
2023-02-01T09:29:24.185Z,1.87
2023-02-01T09:32:02.825Z,1.56
2023-02-01T09:34:31.809Z,1.73
2023-02-01T09:37:14.412Z,1.48
2023-02-01T09:39:44.093Z,1.70
2023-02-01T09:42:49.301Z,1.79
2023-02-01T09:45:25.710Z,1.81
2023-02-01T09:47:59.030Z,1.85
2023-02-01T09:50:39.716Z,2.01
2023-02-01T09:53:28.441Z,1.98
2023-02-01T09:56:15.738Z,2.39
2023-02-01T09:58:49.674Z,2.21
2023-02-01T10:01:25.944Z,2.58
2023-02-01T10:04:06.759Z,2.29
2023-02-01T10:06:43.134Z,2.59
2023-02-01T10:09:35.297Z,2.61
2023-02-01T10:12:31.190Z,2.62
2023-02-01T10:15:26.975Z,2.18
2023-02-01T10:18:06.326Z,2.54
2023-02-01T10:20:58.097Z,2.52
2023-02-01T10:23:44.311Z,2.29
2023-02-01T10:26:21.423Z,2.33
2023-02-01T10:28:55.551Z,2.72
2023-02-01T10:31:26.418Z,2.76
2023-02-01T10:34:02.844Z,2.86
2023-02-01T10:36:42.491Z,3.00
2023-02-01T10:39:13.165Z,2.66
2023-02-01T10:41:44.191Z,3.02
2023-02-01T10:44:18.148Z,3.58
2023-02-01T10:46:45.575Z,3.16
2023-02-01T10:49:28.234Z,3.24
2023-02-01T10:52:16.951Z,2.99
2023-02-01T10:54:45.166Z,2.84
2023-02-01T10:57:29.648Z,3.00
2023-02-01T10:59:57.444Z,3.12
2023-02-01T11:02:36.082Z,3.66
2023-02-01T11:05:10.564Z,3.84
2023-02-01T11:07:39.371Z,4.11
2023-02-01T11:10:07.674Z,4.12
2023-02-01T11:12:38.870Z,4.21
2023-02-01T11:15:21.111Z,4.06
2023-02-01T11:17:55.943Z,4.26
2023-02-01T11:20:32.839Z,4.00
2023-02-01T11:23:00.994Z,4.16
2023-02-01T11:25:28.587Z,4.33
2023-02-01T11:27:57.954Z,4.25
2023-02-01T11:30:40.197Z,4.34
2023-02-01T11:33:13.999Z,4.27
2023-02-01T11:35:43.510Z,4.43
2023-02-01T11:38:31.483Z,4.48
2023-02-01T11:41:12.661Z,4.24
2023-02-01T11:43:59.275Z,4.00
2023-02-01T11:46:33.017Z,3.80
2023-02-01T11:49:22.506Z,3.79
2023-02-01T11:52:23.991Z,3.79
2023-02-01T11:55:13.087Z,3.83
2023-02-01T11:57:55.586Z,3.82
2023-02-01T12:00:59.302Z,3.69
2023-02-01T12:03:50.805Z,3.75
2023-02-01T12:06:30.729Z,3.72
2023-02-01T12:09:32.921Z,3.43
2023-02-01T12:12:06.434Z,3.43
2023-02-01T12:14:52.620Z,3.50
2023-02-01T12:18:17.136Z,3.70
2023-02-01T12:20:50.155Z,3.54
2023-02-01T12:23:39.301Z,3.22
2023-02-01T12:26:33.988Z,3.04
2023-02-01T12:29:13.127Z,2.76
2023-02-01T12:31:48.178Z,2.90
2023-02-01T12:34:39.974Z,3.12
2023-02-01T12:37:42.370Z,3.07
2023-02-01T12:40:23.730Z,2.96
2023-02-01T12:43:00.661Z,3.02
2023-02-01T12:45:34.290Z,3.18
2023-02-01T12:48:20.630Z,3.30
2023-02-01T12:51:00.961Z,3.25
2023-02-01T12:53:39.376Z,2.93
2023-02-01T12:56:14.751Z,2.93
2023-02-01T12:58:52.386Z,2.90
2023-02-01T13:01:31.991Z,3.06
2023-02-01T13:04:13.781Z,3.12
2023-02-01T13:06:57.357Z,3.06
2023-02-01T13:09:36.436Z,2.69
2023-02-01T13:12:30.847Z,2.65
2023-02-01T13:15:02.064Z,2.72
2023-02-01T13:17:34.350Z,2.53
2023-02-01T13:20:17.800Z,2.43
2023-02-01T13:23:09.260Z,2.47
2023-02-01T13:25:51.230Z,2.65
2023-02-01T13:28:31.115Z,2.59
2023-02-01T13:31:37.297Z,2.40
2023-02-01T13:34:39.754Z,2.50
2023-02-01T13:37:22.501Z,2.53
2023-02-01T13:40:23.859Z,2.43
2023-02-01T13:42:53.526Z,2.39
2023-02-01T13:45:26.479Z,2.48
2023-02-01T13:47:57.531Z,2.36
2023-02-01T13:50:30.147Z,2.28
2023-02-01T13:53:12.831Z,2.28
2023-02-01T13:55:43.474Z,2.30
2023-02-01T13:58:34.199Z,2.12
2023-02-01T14:01:22.979Z,2.08
2023-02-01T14:03:53.116Z,2.01
2023-02-01T14:06:31.157Z,1.96
2023-02-01T14:09:14.139Z,1.91
2023-02-01T14:11:58.906Z,2.07
2023-02-01T14:14:26.733Z,2.00
2023-02-01T14:16:54.073Z,1.98
2023-02-01T14:19:28.745Z,2.00
2023-02-01T14:22:01.771Z,2.02
2023-02-01T14:24:35.252Z,1.95
2023-02-01T14:27:16.817Z,1.96
2023-02-01T14:29:56.301Z,1.92
2023-02-01T14:32:32.010Z,2.19
2023-02-01T14:35:02.456Z,2.12
2023-02-01T14:37:34.444Z,1.89
2023-02-01T14:40:13.989Z,1.82
2023-02-01T14:42:44.408Z,1.74
2023-02-01T14:45:23.530Z,1.74
2023-02-01T14:47:52.522Z,1.72
2023-02-01T14:50:33.824Z,1.81
2023-02-01T14:53:01.278Z,1.71
2023-02-01T14:55:42.858Z,2.02
2023-02-01T14:58:23.622Z,2.26
2023-02-01T15:00:58.292Z,1.89
2023-02-01T15:03:41.280Z,1.84
2023-02-01T15:06:29.144Z,1.75
2023-02-01T15:08:58.678Z,1.75
2023-02-01T15:11:26.017Z,1.87
2023-02-01T15:13:55.851Z,2.00
2023-02-01T15:16:26.807Z,1.86
2023-02-01T15:19:12.158Z,1.76
2023-02-01T15:21:51.721Z,1.48
2023-02-01T15:24:25.756Z,1.64
2023-02-01T15:26:54.682Z,1.43
2023-02-01T15:29:28.740Z,1.37
2023-02-01T15:31:56.752Z,1.55
2023-02-01T15:34:24.191Z,1.80
2023-02-01T15:37:02.967Z,1.80
2023-02-01T15:39:32.561Z,1.89
2023-02-01T15:42:10.335Z,1.54
2023-02-01T15:44:47.429Z,1.21
2023-02-01T15:47:17.992Z,1.43
2023-02-01T15:49:51.228Z,1.41
2023-02-01T15:52:40.504Z,1.29
2023-02-01T15:55:43.654Z,1.17
2023-02-01T15:58:20.243Z,1.20
2023-02-01T16:00:54.468Z,1.23
2023-02-01T16:03:41.517Z,1.40
2023-02-01T16:06:24.551Z,1.53
2023-02-01T16:08:55.315Z,1.65
2023-02-01T16:11:34.169Z,1.82
2023-02-01T16:14:02.768Z,1.45
2023-02-01T16:16:31.005Z,1.74
2023-02-01T16:18:58.596Z,1.68
2023-02-01T16:21:26.096Z,1.82
2023-02-01T16:23:54.978Z,1.93
2023-02-01T16:26:22.746Z,1.88
2023-02-01T16:28:50.308Z,1.81
2023-02-01T16:31:22.789Z,1.99
2023-02-01T16:33:51.922Z,1.80
2023-02-01T16:36:19.829Z,1.98
2023-02-01T16:38:50.717Z,1.89
2023-02-01T16:41:23.189Z,2.01
2023-02-01T16:43:52.832Z,1.87
2023-02-01T16:46:27.074Z,1.93
2023-02-01T16:48:57.481Z,2.14
2023-02-01T16:51:28.433Z,2.16
2023-02-01T16:53:55.992Z,1.87
2023-02-01T16:56:27.304Z,1.24
2023-02-01T16:58:55.585Z,1.64
2023-02-01T17:01:23.634Z,1.42
2023-02-01T17:03:51.379Z,1.49
2023-02-01T17:06:25.447Z,1.75
2023-02-01T17:08:56.236Z,1.77
2023-02-01T17:11:23.831Z,1.78
2023-02-01T17:13:51.773Z,1.66
2023-02-01T17:16:19.214Z,1.88
2023-02-01T17:19:08.402Z,1.57
2023-02-01T17:21:45.752Z,1.37
2023-02-01T17:24:15.587Z,1.46
2023-02-01T17:26:44.623Z,1.51
2023-02-01T17:29:12.944Z,1.49
2023-02-01T17:31:44.387Z,1.38
2023-02-01T17:34:17.240Z,1.27
2023-02-01T17:36:47.002Z,0.98
2023-02-01T17:39:36.390Z,1.31
2023-02-01T17:42:06.043Z,0.81
2023-02-01T17:44:33.664Z,0.92
2023-02-01T17:47:01.088Z,1.15
2023-02-01T17:49:31.396Z,0.77
2023-02-01T17:51:58.908Z,1.01
2023-02-01T17:54:26.998Z,1.17
2023-02-01T17:56:54.421Z,1.06
2023-02-01T17:59:21.908Z,0.99
2023-02-01T18:01:49.728Z,0.88
2023-02-01T18:04:20.129Z,0.92
2023-02-01T18:06:47.532Z,0.76
2023-02-01T18:09:14.996Z,0.95
2023-02-01T18:11:42.939Z,0.91
2023-02-01T18:14:16.301Z,0.68
2023-02-01T18:16:43.911Z,1.10
2023-02-01T18:19:11.534Z,1.16
2023-02-01T18:21:42.655Z,1.26
2023-02-01T18:24:13.589Z,1.22
2023-02-01T18:26:41.893Z,1.43
2023-02-01T18:29:09.695Z,1.10
2023-02-01T18:31:44.862Z,0.89
2023-02-01T18:34:17.501Z,0.74
2023-02-01T18:36:44.914Z,0.77
2023-02-01T18:39:12.349Z,1.09
2023-02-01T18:41:40.803Z,1.10
2023-02-01T18:44:15.581Z,0.98
2023-02-01T18:46:43.662Z,0.74
2023-02-01T18:49:14.211Z,0.96
2023-02-01T18:51:43.466Z,0.94
2023-02-01T18:54:12.529Z,0.89
2023-02-01T18:56:40.861Z,0.95
2023-02-01T18:59:15.500Z,0.75
2023-02-01T19:01:44.829Z,0.77
2023-02-01T19:04:16.988Z,0.78
2023-02-01T19:06:50.229Z,0.70
2023-02-01T19:09:17.752Z,0.79
2023-02-01T19:11:45.441Z,1.12
2023-02-01T19:14:12.757Z,1.22
2023-02-01T19:16:40.213Z,1.14
2023-02-01T19:19:07.761Z,1.04
2023-02-01T19:21:35.259Z,1.22
2023-02-01T19:24:02.677Z,1.23
2023-02-01T19:26:30.158Z,1.47
2023-02-01T19:28:58.940Z,1.61
2023-02-01T19:31:26.387Z,1.61
2023-02-01T19:33:55.285Z,1.60
2023-02-01T19:36:22.831Z,1.46
2023-02-01T19:38:50.238Z,1.55
2023-02-01T19:41:17.714Z,1.56
2023-02-01T19:43:45.222Z,1.56
2023-02-01T19:46:12.915Z,1.66
2023-02-01T19:48:40.431Z,1.71
2023-02-01T19:51:08.810Z,1.58
2023-02-01T19:53:36.313Z,1.06
2023-02-01T19:56:03.854Z,1.38
2023-02-01T19:58:31.259Z,1.48
2023-02-01T20:00:59.870Z,1.46
2023-02-01T20:03:27.925Z,1.36
2023-02-01T20:05:57.413Z,1.43
2023-02-01T20:08:25.741Z,0.89
2023-02-01T20:10:53.348Z,0.87
2023-02-01T20:13:20.923Z,0.81
2023-02-01T20:15:48.285Z,1.07
2023-02-01T20:18:15.761Z,0.88
2023-02-01T20:20:43.110Z,0.63
2023-02-01T20:23:11.211Z,0.68
2023-02-01T20:25:39.771Z,0.67
2023-02-01T20:28:07.218Z,0.90
2023-02-01T20:30:34.641Z,0.90
2023-02-01T20:33:02.295Z,1.14
2023-02-01T20:35:29.727Z,0.85
2023-02-01T20:38:02.025Z,0.65
2023-02-01T20:40:31.234Z,0.63
2023-02-01T20:42:58.840Z,0.86
2023-02-01T20:45:27.389Z,0.79
2023-02-01T20:47:55.454Z,0.40
2023-02-01T20:50:22.901Z,0.59
2023-02-01T20:52:50.382Z,0.31
2023-02-01T20:55:17.904Z,0.37
2023-02-01T20:57:45.327Z,0.65
2023-02-01T21:00:13.443Z,0.90
2023-02-01T21:02:41.151Z,1.03
2023-02-01T21:05:09.465Z,0.93
2023-02-01T21:07:38.073Z,1.12
2023-02-01T21:10:06.719Z,1.09
2023-02-01T21:12:34.485Z,1.02
2023-02-01T21:15:01.859Z,1.07
2023-02-01T21:17:31.920Z,1.09
2023-02-01T21:20:00.070Z,1.15
2023-02-01T21:22:27.484Z,0.93
2023-02-01T21:24:55.442Z,1.01
2023-02-01T21:27:22.857Z,1.16
2023-02-01T21:29:50.340Z,1.11
2023-02-01T21:32:17.765Z,1.06
2023-02-01T21:34:45.250Z,0.73
2023-02-01T21:37:12.571Z,0.95
2023-02-01T21:39:40.086Z,1.10
2023-02-01T21:42:18.412Z,1.01
2023-02-01T21:44:47.729Z,1.21
2023-02-01T21:47:17.786Z,1.10
2023-02-01T21:49:47.011Z,1.00
2023-02-01T21:52:17.304Z,0.82
2023-02-01T21:54:45.346Z,0.86
2023-02-01T21:57:13.027Z,0.84
2023-02-01T21:59:41.496Z,0.80
2023-02-01T22:02:16.886Z,0.77
2023-02-01T22:04:45.020Z,0.83
2023-02-01T22:07:12.483Z,0.67
2023-02-01T22:09:40.631Z,0.49
2023-02-01T22:12:10.105Z,0.63
2023-02-01T22:14:37.716Z,0.71
2023-02-01T22:17:05.057Z,0.84
2023-02-01T22:19:32.538Z,0.93
2023-02-01T22:21:59.934Z,0.90
2023-02-01T22:24:27.514Z,0.85
2023-02-01T22:26:56.227Z,0.82
2023-02-01T22:29:42.007Z,0.85
2023-02-01T22:32:09.652Z,0.66
2023-02-01T22:34:37.165Z,0.78
2023-02-01T22:37:04.563Z,0.51
2023-02-01T22:39:32.038Z,0.45
2023-02-01T22:41:59.416Z,0.36
2023-02-01T22:44:26.890Z,0.50
2023-02-01T22:46:54.267Z,0.51
2023-02-01T22:49:21.793Z,0.37
2023-02-01T22:51:51.120Z,0.23
2023-02-01T22:54:23.165Z,0.01
2023-02-01T22:56:50.615Z,0.06
2023-02-01T22:59:18.544Z,0.22
2023-02-01T23:01:46.047Z,0.09
2023-02-01T23:04:15.173Z,0.11
2023-02-01T23:06:42.669Z,0.03
2023-02-01T23:09:22.522Z,0.01
2023-02-01T23:11:49.994Z,-0.21
2023-02-01T23:14:17.772Z,0.12
2023-02-01T23:16:47.001Z,0.40
2023-02-01T23:19:14.892Z,0.35
2023-02-01T23:21:42.546Z,0.53
2023-02-01T23:24:11.087Z,0.47
2023-02-01T23:26:38.523Z,0.43
2023-02-01T23:29:06.205Z,0.51
2023-02-01T23:31:35.750Z,0.48
2023-02-01T23:34:04.517Z,0.37
2023-02-01T23:36:33.713Z,0.39
2023-02-01T23:39:01.982Z,0.40
2023-02-01T23:41:30.308Z,0.58
2023-02-01T23:44:01.280Z,0.49
2023-02-01T23:46:31.947Z,0.85
2023-02-01T23:49:00.830Z,0.56
2023-02-01T23:51:28.672Z,0.69
2023-02-01T23:53:56.736Z,0.57
2023-02-01T23:56:27.338Z,0.73
2023-02-01T23:58:57.055Z,0.76
